Greenfield, United Kingdom
Current Conditions -  °F | °C
As of 4:50 PM on Friday 24 Oct 2014 (Local Time) from EGNR Reporting Station
Few Clouds Few Clouds  
Wind Chill: 57°   Ceiling: Unl
Heat Index: 57°   Visibility: 6mi
Dew Point: 43°   Wind: 6mph
Humidity: 59%   Direction: 260°W
Pressure: 29.88"   Gusts: NA
Location:  53.28°N, 3.22°W
Report Text: EGNR 241550Z 26005KT 9999 FEW030 14/06 Q1012
Loading
Personal Weather Stations






























Interactive Weather Map
Tropical Storm Tracking
New forecast layout! Learn more

10-Day Weather Forecast

Advertisements
Track Severe Weather on mobile